<?xml version="1.0" encoding="UTF-8" standalone="no" ?>
<gpx xmlns="http://www.topografix.com/GPX/1/1" xmlns:xsi="http://www.w3.org/2001/XMLSchema-instance" xsi:schemaLocation="http://www.topografix.com/GPX/1/1 http://www.topografix.com/GPX/1/1/gpx.xsd" version="1.1" creator="VisuGPX - https://www.visugpx.com">
  <metadata>
    <name>Entrainement ajoupa</name>
    <desc><![CDATA[[entrainement ajoupa molleges les paluds saint andiol]]></desc>
  </metadata>
  <trk>
    <name><![CDATA[MOLLEGES02 17:46:32]]></name>
    <trkseg>
      <trkpt lat="43.83789" lon="4.93748">
        <ele>16.48</ele>
        <time>2017-10-02T13:00:57Z</time>
      </trkpt>
      <trkpt lat="43.83755" lon="4.93709">
        <ele>53.97</ele>
        <time>2017-10-02T13:01:15Z</time>
      </trkpt>
      <trkpt lat="43.83753" lon="4.9371">
        <ele>53.01</ele>
        <time>2017-10-02T13:01:26Z</time>
      </trkpt>
      <trkpt lat="43.83756" lon="4.9372">
        <ele>52.53</ele>
        <time>2017-10-02T13:01:34Z</time>
      </trkpt>
      <trkpt lat="43.83737" lon="4.93737">
        <ele>52.53</ele>
        <time>2017-10-02T13:01:52Z</time>
      </trkpt>
      <trkpt lat="43.83714" lon="4.93749">
        <ele>51.57</ele>
        <time>2017-10-02T13:02:10Z</time>
      </trkpt>
      <trkpt lat="43.83691" lon="4.93756">
        <ele>51.09</ele>
        <time>2017-10-02T13:02:30Z</time>
      </trkpt>
      <trkpt lat="43.83663" lon="4.93763">
        <ele>52.53</ele>
        <time>2017-10-02T13:02:53Z</time>
      </trkpt>
      <trkpt lat="43.83639" lon="4.93764">
        <ele>53.01</ele>
        <time>2017-10-02T13:03:14Z</time>
      </trkpt>
      <trkpt lat="43.83636" lon="4.93765">
        <ele>53.01</ele>
        <time>2017-10-02T13:03:18Z</time>
      </trkpt>
      <trkpt lat="43.83631" lon="4.9375">
        <ele>53.97</ele>
        <time>2017-10-02T13:03:27Z</time>
      </trkpt>
      <trkpt lat="43.83631" lon="4.93747">
        <ele>53.97</ele>
        <time>2017-10-02T13:03:28Z</time>
      </trkpt>
      <trkpt lat="43.83631" lon="4.93744">
        <ele>53.97</ele>
        <time>2017-10-02T13:03:29Z</time>
      </trkpt>
      <trkpt lat="43.83631" lon="4.93741">
        <ele>53.97</ele>
        <time>2017-10-02T13:03:30Z</time>
      </trkpt>
      <trkpt lat="43.83628" lon="4.93684">
        <ele>55.89</ele>
        <time>2017-10-02T13:03:49Z</time>
      </trkpt>
      <trkpt lat="43.83625" lon="4.93627">
        <ele>56.37</ele>
        <time>2017-10-02T13:04:09Z</time>
      </trkpt>
      <trkpt lat="43.83628" lon="4.93589">
        <ele>57.82</ele>
        <time>2017-10-02T13:04:24Z</time>
      </trkpt>
      <trkpt lat="43.83632" lon="4.93541">
        <ele>61.18</ele>
        <time>2017-10-02T13:04:40Z</time>
      </trkpt>
      <trkpt lat="43.83637" lon="4.93489">
        <ele>61.66</ele>
        <time>2017-10-02T13:04:57Z</time>
      </trkpt>
      <trkpt lat="43.83635" lon="4.93427">
        <ele>58.78</ele>
        <time>2017-10-02T13:05:16Z</time>
      </trkpt>
      <trkpt lat="43.83633" lon="4.93423">
        <ele>58.78</ele>
        <time>2017-10-02T13:05:18Z</time>
      </trkpt>
      <trkpt lat="43.83631" lon="4.93421">
        <ele>58.78</ele>
        <time>2017-10-02T13:05:19Z</time>
      </trkpt>
      <trkpt lat="43.83629" lon="4.9342">
        <ele>58.78</ele>
        <time>2017-10-02T13:05:20Z</time>
      </trkpt>
      <trkpt lat="43.83627" lon="4.93419">
        <ele>58.78</ele>
        <time>2017-10-02T13:05:21Z</time>
      </trkpt>
      <trkpt lat="43.83625" lon="4.93419">
        <ele>58.3</ele>
        <time>2017-10-02T13:05:22Z</time>
      </trkpt>
      <trkpt lat="43.83623" lon="4.93418">
        <ele>58.3</ele>
        <time>2017-10-02T13:05:23Z</time>
      </trkpt>
      <trkpt lat="43.8362" lon="4.93418">
        <ele>57.82</ele>
        <time>2017-10-02T13:05:24Z</time>
      </trkpt>
      <trkpt lat="43.83576" lon="4.93414">
        <ele>53.97</ele>
        <time>2017-10-02T13:05:43Z</time>
      </trkpt>
      <trkpt lat="43.83534" lon="4.93412">
        <ele>53.49</ele>
        <time>2017-10-02T13:06:01Z</time>
      </trkpt>
      <trkpt lat="43.83515" lon="4.93405">
        <ele>53.01</ele>
        <time>2017-10-02T13:06:11Z</time>
      </trkpt>
      <trkpt lat="43.83514" lon="4.93402">
        <ele>53.01</ele>
        <time>2017-10-02T13:06:12Z</time>
      </trkpt>
      <trkpt lat="43.83514" lon="4.93399">
        <ele>53.49</ele>
        <time>2017-10-02T13:06:13Z</time>
      </trkpt>
      <trkpt lat="43.83517" lon="4.93355">
        <ele>56.86</ele>
        <time>2017-10-02T13:06:28Z</time>
      </trkpt>
      <trkpt lat="43.83511" lon="4.93303">
        <ele>57.34</ele>
        <time>2017-10-02T13:06:44Z</time>
      </trkpt>
      <trkpt lat="43.83485" lon="4.93259">
        <ele>56.86</ele>
        <time>2017-10-02T13:07:02Z</time>
      </trkpt>
      <trkpt lat="43.83465" lon="4.93208">
        <ele>57.34</ele>
        <time>2017-10-02T13:07:19Z</time>
      </trkpt>
      <trkpt lat="43.83446" lon="4.93154">
        <ele>59.26</ele>
        <time>2017-10-02T13:07:36Z</time>
      </trkpt>
      <trkpt lat="43.83432" lon="4.93098">
        <ele>61.66</ele>
        <time>2017-10-02T13:07:52Z</time>
      </trkpt>
      <trkpt lat="43.83429" lon="4.93074">
        <ele>61.18</ele>
        <time>2017-10-02T13:08:05Z</time>
      </trkpt>
      <trkpt lat="43.83416" lon="4.93031">
        <ele>62.62</ele>
        <time>2017-10-02T13:08:19Z</time>
      </trkpt>
      <trkpt lat="43.83402" lon="4.92969">
        <ele>62.14</ele>
        <time>2017-10-02T13:08:37Z</time>
      </trkpt>
      <trkpt lat="43.83387" lon="4.92909">
        <ele>60.22</ele>
        <time>2017-10-02T13:08:57Z</time>
      </trkpt>
      <trkpt lat="43.83385" lon="4.929">
        <ele>61.18</ele>
        <time>2017-10-02T13:09:06Z</time>
      </trkpt>
      <trkpt lat="43.83386" lon="4.92898">
        <ele>61.18</ele>
        <time>2017-10-02T13:09:07Z</time>
      </trkpt>
      <trkpt lat="43.83388" lon="4.92897">
        <ele>61.18</ele>
        <time>2017-10-02T13:09:08Z</time>
      </trkpt>
      <trkpt lat="43.8339" lon="4.92896">
        <ele>61.18</ele>
        <time>2017-10-02T13:09:09Z</time>
      </trkpt>
      <trkpt lat="43.83393" lon="4.92895">
        <ele>61.18</ele>
        <time>2017-10-02T13:09:10Z</time>
      </trkpt>
      <trkpt lat="43.83419" lon="4.92878">
        <ele>61.18</ele>
        <time>2017-10-02T13:09:23Z</time>
      </trkpt>
      <trkpt lat="43.83421" lon="4.92877">
        <ele>61.66</ele>
        <time>2017-10-02T13:09:25Z</time>
      </trkpt>
      <trkpt lat="43.83422" lon="4.92875">
        <ele>61.66</ele>
        <time>2017-10-02T13:09:26Z</time>
      </trkpt>
      <trkpt lat="43.83422" lon="4.92871">
        <ele>62.14</ele>
        <time>2017-10-02T13:09:27Z</time>
      </trkpt>
      <trkpt lat="43.83422" lon="4.92868">
        <ele>62.14</ele>
        <time>2017-10-02T13:09:28Z</time>
      </trkpt>
      <trkpt lat="43.83421" lon="4.92866">
        <ele>62.14</ele>
        <time>2017-10-02T13:09:29Z</time>
      </trkpt>
      <trkpt lat="43.8342" lon="4.92863">
        <ele>62.62</ele>
        <time>2017-10-02T13:09:30Z</time>
      </trkpt>
      <trkpt lat="43.83418" lon="4.9286">
        <ele>62.62</ele>
        <time>2017-10-02T13:09:31Z</time>
      </trkpt>
      <trkpt lat="43.83403" lon="4.92803">
        <ele>65.03</ele>
        <time>2017-10-02T13:09:46Z</time>
      </trkpt>
      <trkpt lat="43.83387" lon="4.92753">
        <ele>64.07</ele>
        <time>2017-10-02T13:10:02Z</time>
      </trkpt>
      <trkpt lat="43.83374" lon="4.92714">
        <ele>62.62</ele>
        <time>2017-10-02T13:10:14Z</time>
      </trkpt>
      <trkpt lat="43.83356" lon="4.92642">
        <ele>64.07</ele>
        <time>2017-10-02T13:10:33Z</time>
      </trkpt>
      <trkpt lat="43.8335" lon="4.92578">
        <ele>60.7</ele>
        <time>2017-10-02T13:10:52Z</time>
      </trkpt>
      <trkpt lat="43.83348" lon="4.92543">
        <ele>61.18</ele>
        <time>2017-10-02T13:11:05Z</time>
      </trkpt>
      <trkpt lat="43.83342" lon="4.92499">
        <ele>62.14</ele>
        <time>2017-10-02T13:11:19Z</time>
      </trkpt>
      <trkpt lat="43.83334" lon="4.92468">
        <ele>64.55</ele>
        <time>2017-10-02T13:11:32Z</time>
      </trkpt>
      <trkpt lat="43.83325" lon="4.9243">
        <ele>64.07</ele>
        <time>2017-10-02T13:11:44Z</time>
      </trkpt>
      <trkpt lat="43.83316" lon="4.92393">
        <ele>65.03</ele>
        <time>2017-10-02T13:11:56Z</time>
      </trkpt>
      <trkpt lat="43.83304" lon="4.92353">
        <ele>65.99</ele>
        <time>2017-10-02T13:12:07Z</time>
      </trkpt>
      <trkpt lat="43.83289" lon="4.92318">
        <ele>66.95</ele>
        <time>2017-10-02T13:12:20Z</time>
      </trkpt>
      <trkpt lat="43.8327" lon="4.92276">
        <ele>69.83</ele>
        <time>2017-10-02T13:12:33Z</time>
      </trkpt>
      <trkpt lat="43.83259" lon="4.92257">
        <ele>68.39</ele>
        <time>2017-10-02T13:12:40Z</time>
      </trkpt>
      <trkpt lat="43.83231" lon="4.92265">
        <ele>65.03</ele>
        <time>2017-10-02T13:12:53Z</time>
      </trkpt>
      <trkpt lat="43.83201" lon="4.92275">
        <ele>65.51</ele>
        <time>2017-10-02T13:13:08Z</time>
      </trkpt>
      <trkpt lat="43.83164" lon="4.92286">
        <ele>66.95</ele>
        <time>2017-10-02T13:13:26Z</time>
      </trkpt>
      <trkpt lat="43.83129" lon="4.923">
        <ele>67.43</ele>
        <time>2017-10-02T13:13:41Z</time>
      </trkpt>
      <trkpt lat="43.83104" lon="4.92305">
        <ele>69.35</ele>
        <time>2017-10-02T13:13:53Z</time>
      </trkpt>
      <trkpt lat="43.83078" lon="4.92313">
        <ele>71.76</ele>
        <time>2017-10-02T13:14:04Z</time>
      </trkpt>
      <trkpt lat="43.83043" lon="4.92326">
        <ele>74.64</ele>
        <time>2017-10-02T13:14:17Z</time>
      </trkpt>
      <trkpt lat="43.8301" lon="4.9234">
        <ele>73.68</ele>
        <time>2017-10-02T13:14:30Z</time>
      </trkpt>
      <trkpt lat="43.82984" lon="4.92354">
        <ele>73.2</ele>
        <time>2017-10-02T13:14:41Z</time>
      </trkpt>
      <trkpt lat="43.82941" lon="4.92379">
        <ele>70.31</ele>
        <time>2017-10-02T13:14:56Z</time>
      </trkpt>
      <trkpt lat="43.82916" lon="4.92391">
        <ele>72.24</ele>
        <time>2017-10-02T13:15:09Z</time>
      </trkpt>
      <trkpt lat="43.82889" lon="4.92405">
        <ele>78.48</ele>
        <time>2017-10-02T13:15:24Z</time>
      </trkpt>
      <trkpt lat="43.82862" lon="4.92431">
        <ele>73.2</ele>
        <time>2017-10-02T13:15:36Z</time>
      </trkpt>
      <trkpt lat="43.82841" lon="4.92453">
        <ele>68.87</ele>
        <time>2017-10-02T13:15:49Z</time>
      </trkpt>
      <trkpt lat="43.82839" lon="4.92456">
        <ele>68.87</ele>
        <time>2017-10-02T13:15:51Z</time>
      </trkpt>
      <trkpt lat="43.82824" lon="4.92453">
        <ele>66.47</ele>
        <time>2017-10-02T13:15:57Z</time>
      </trkpt>
      <trkpt lat="43.82786" lon="4.92403">
        <ele>60.22</ele>
        <time>2017-10-02T13:16:14Z</time>
      </trkpt>
      <trkpt lat="43.82762" lon="4.92352">
        <ele>59.74</ele>
        <time>2017-10-02T13:16:27Z</time>
      </trkpt>
      <trkpt lat="43.82743" lon="4.92301">
        <ele>58.3</ele>
        <time>2017-10-02T13:16:43Z</time>
      </trkpt>
      <trkpt lat="43.82739" lon="4.92294">
        <ele>57.34</ele>
        <time>2017-10-02T13:16:49Z</time>
      </trkpt>
      <trkpt lat="43.82737" lon="4.92294">
        <ele>56.86</ele>
        <time>2017-10-02T13:16:50Z</time>
      </trkpt>
      <trkpt lat="43.82734" lon="4.92294">
        <ele>56.86</ele>
        <time>2017-10-02T13:16:51Z</time>
      </trkpt>
      <trkpt lat="43.82732" lon="4.92295">
        <ele>56.37</ele>
        <time>2017-10-02T13:16:52Z</time>
      </trkpt>
      <trkpt lat="43.82683" lon="4.92329">
        <ele>54.45</ele>
        <time>2017-10-02T13:17:10Z</time>
      </trkpt>
      <trkpt lat="43.82626" lon="4.92367">
        <ele>53.01</ele>
        <time>2017-10-02T13:17:32Z</time>
      </trkpt>
      <trkpt lat="43.8257" lon="4.92403">
        <ele>53.01</ele>
        <time>2017-10-02T13:17:52Z</time>
      </trkpt>
      <trkpt lat="43.82526" lon="4.92431">
        <ele>53.01</ele>
        <time>2017-10-02T13:18:08Z</time>
      </trkpt>
      <trkpt lat="43.82477" lon="4.92464">
        <ele>52.53</ele>
        <time>2017-10-02T13:18:27Z</time>
      </trkpt>
      <trkpt lat="43.8243" lon="4.92494">
        <ele>52.53</ele>
        <time>2017-10-02T13:18:45Z</time>
      </trkpt>
      <trkpt lat="43.82381" lon="4.92526">
        <ele>52.53</ele>
        <time>2017-10-02T13:19:05Z</time>
      </trkpt>
      <trkpt lat="43.82348" lon="4.9255">
        <ele>52.05</ele>
        <time>2017-10-02T13:19:22Z</time>
      </trkpt>
      <trkpt lat="43.82325" lon="4.92562">
        <ele>53.01</ele>
        <time>2017-10-02T13:19:38Z</time>
      </trkpt>
      <trkpt lat="43.82297" lon="4.92578">
        <ele>54.45</ele>
        <time>2017-10-02T13:20:00Z</time>
      </trkpt>
      <trkpt lat="43.82277" lon="4.92588">
        <ele>54.93</ele>
        <time>2017-10-02T13:20:18Z</time>
      </trkpt>
      <trkpt lat="43.82277" lon="4.92589">
        <ele>54.93</ele>
        <time>2017-10-02T13:20:19Z</time>
      </trkpt>
      <trkpt lat="43.82269" lon="4.9258">
        <ele>55.41</ele>
        <time>2017-10-02T13:20:24Z</time>
      </trkpt>
      <trkpt lat="43.8225" lon="4.92527">
        <ele>64.07</ele>
        <time>2017-10-02T13:20:38Z</time>
      </trkpt>
      <trkpt lat="43.8223" lon="4.92459">
        <ele>76.08</ele>
        <time>2017-10-02T13:20:53Z</time>
      </trkpt>
      <trkpt lat="43.82208" lon="4.92385">
        <ele>73.68</ele>
        <time>2017-10-02T13:21:10Z</time>
      </trkpt>
      <trkpt lat="43.82189" lon="4.92316">
        <ele>67.91</ele>
        <time>2017-10-02T13:21:27Z</time>
      </trkpt>
      <trkpt lat="43.82161" lon="4.92224">
        <ele>62.62</ele>
        <time>2017-10-02T13:21:50Z</time>
      </trkpt>
      <trkpt lat="43.82134" lon="4.92143">
        <ele>64.07</ele>
        <time>2017-10-02T13:22:08Z</time>
      </trkpt>
      <trkpt lat="43.82117" lon="4.92091">
        <ele>67.91</ele>
        <time>2017-10-02T13:22:20Z</time>
      </trkpt>
      <trkpt lat="43.82104" lon="4.9205">
        <ele>66.47</ele>
        <time>2017-10-02T13:22:34Z</time>
      </trkpt>
      <trkpt lat="43.82101" lon="4.92043">
        <ele>65.99</ele>
        <time>2017-10-02T13:22:36Z</time>
      </trkpt>
      <trkpt lat="43.82092" lon="4.92036">
        <ele>64.07</ele>
        <time>2017-10-02T13:22:40Z</time>
      </trkpt>
      <trkpt lat="43.82046" lon="4.92041">
        <ele>57.34</ele>
        <time>2017-10-02T13:22:55Z</time>
      </trkpt>
      <trkpt lat="43.82014" lon="4.92066">
        <ele>56.86</ele>
        <time>2017-10-02T13:23:09Z</time>
      </trkpt>
      <trkpt lat="43.82024" lon="4.92122">
        <ele>55.41</ele>
        <time>2017-10-02T13:23:21Z</time>
      </trkpt>
      <trkpt lat="43.82047" lon="4.92207">
        <ele>53.97</ele>
        <time>2017-10-02T13:23:41Z</time>
      </trkpt>
      <trkpt lat="43.82048" lon="4.92258">
        <ele>53.97</ele>
        <time>2017-10-02T13:23:57Z</time>
      </trkpt>
      <trkpt lat="43.81992" lon="4.92297">
        <ele>51.57</ele>
        <time>2017-10-02T13:24:18Z</time>
      </trkpt>
      <trkpt lat="43.81939" lon="4.92332">
        <ele>51.57</ele>
        <time>2017-10-02T13:24:39Z</time>
      </trkpt>
      <trkpt lat="43.81899" lon="4.92353">
        <ele>51.09</ele>
        <time>2017-10-02T13:24:55Z</time>
      </trkpt>
      <trkpt lat="43.81857" lon="4.92349">
        <ele>51.09</ele>
        <time>2017-10-02T13:25:12Z</time>
      </trkpt>
      <trkpt lat="43.81815" lon="4.92355">
        <ele>50.13</ele>
        <time>2017-10-02T13:25:29Z</time>
      </trkpt>
      <trkpt lat="43.81776" lon="4.92371">
        <ele>51.09</ele>
        <time>2017-10-02T13:25:49Z</time>
      </trkpt>
      <trkpt lat="43.81773" lon="4.92371">
        <ele>50.61</ele>
        <time>2017-10-02T13:25:54Z</time>
      </trkpt>
      <trkpt lat="43.81769" lon="4.92364">
        <ele>50.13</ele>
        <time>2017-10-02T13:25:57Z</time>
      </trkpt>
      <trkpt lat="43.81769" lon="4.92362">
        <ele>50.13</ele>
        <time>2017-10-02T13:25:58Z</time>
      </trkpt>
      <trkpt lat="43.81769" lon="4.9236">
        <ele>49.65</ele>
        <time>2017-10-02T13:25:59Z</time>
      </trkpt>
      <trkpt lat="43.81768" lon="4.92357">
        <ele>49.65</ele>
        <time>2017-10-02T13:26:00Z</time>
      </trkpt>
      <trkpt lat="43.81768" lon="4.92354">
        <ele>49.16</ele>
        <time>2017-10-02T13:26:01Z</time>
      </trkpt>
      <trkpt lat="43.81763" lon="4.9232">
        <ele>49.16</ele>
        <time>2017-10-02T13:26:12Z</time>
      </trkpt>
      <trkpt lat="43.81751" lon="4.92264">
        <ele>52.53</ele>
        <time>2017-10-02T13:26:25Z</time>
      </trkpt>
      <trkpt lat="43.81737" lon="4.92198">
        <ele>52.53</ele>
        <time>2017-10-02T13:26:41Z</time>
      </trkpt>
      <trkpt lat="43.81727" lon="4.92145">
        <ele>52.53</ele>
        <time>2017-10-02T13:26:55Z</time>
      </trkpt>
      <trkpt lat="43.81714" lon="4.92073">
        <ele>52.53</ele>
        <time>2017-10-02T13:27:14Z</time>
      </trkpt>
      <trkpt lat="43.81702" lon="4.92018">
        <ele>51.09</ele>
        <time>2017-10-02T13:27:28Z</time>
      </trkpt>
      <trkpt lat="43.81693" lon="4.91962">
        <ele>52.53</ele>
        <time>2017-10-02T13:27:42Z</time>
      </trkpt>
      <trkpt lat="43.81677" lon="4.9189">
        <ele>54.45</ele>
        <time>2017-10-02T13:27:59Z</time>
      </trkpt>
      <trkpt lat="43.81663" lon="4.91864">
        <ele>56.86</ele>
        <time>2017-10-02T13:28:10Z</time>
      </trkpt>
      <trkpt lat="43.81644" lon="4.9185">
        <ele>57.82</ele>
        <time>2017-10-02T13:28:21Z</time>
      </trkpt>
      <trkpt lat="43.81611" lon="4.91824">
        <ele>53.97</ele>
        <time>2017-10-02T13:28:35Z</time>
      </trkpt>
      <trkpt lat="43.81588" lon="4.91808">
        <ele>55.41</ele>
        <time>2017-10-02T13:28:46Z</time>
      </trkpt>
      <trkpt lat="43.81573" lon="4.91799">
        <ele>54.45</ele>
        <time>2017-10-02T13:28:59Z</time>
      </trkpt>
      <trkpt lat="43.81566" lon="4.91797">
        <ele>53.97</ele>
        <time>2017-10-02T13:29:18Z</time>
      </trkpt>
      <trkpt lat="43.81562" lon="4.91799">
        <ele>53.49</ele>
        <time>2017-10-02T13:29:28Z</time>
      </trkpt>
      <trkpt lat="43.81561" lon="4.918">
        <ele>53.49</ele>
        <time>2017-10-02T13:29:29Z</time>
      </trkpt>
      <trkpt lat="43.81549" lon="4.91836">
        <ele>53.01</ele>
        <time>2017-10-02T13:29:50Z</time>
      </trkpt>
      <trkpt lat="43.81538" lon="4.91869">
        <ele>54.45</ele>
        <time>2017-10-02T13:30:09Z</time>
      </trkpt>
      <trkpt lat="43.81527" lon="4.9191">
        <ele>53.49</ele>
        <time>2017-10-02T13:30:31Z</time>
      </trkpt>
      <trkpt lat="43.81511" lon="4.91966">
        <ele>53.49</ele>
        <time>2017-10-02T13:30:50Z</time>
      </trkpt>
      <trkpt lat="43.81495" lon="4.92023">
        <ele>53.01</ele>
        <time>2017-10-02T13:31:08Z</time>
      </trkpt>
      <trkpt lat="43.81481" lon="4.92072">
        <ele>53.97</ele>
        <time>2017-10-02T13:31:24Z</time>
      </trkpt>
      <trkpt lat="43.81467" lon="4.9212">
        <ele>53.49</ele>
        <time>2017-10-02T13:31:40Z</time>
      </trkpt>
      <trkpt lat="43.81455" lon="4.92164">
        <ele>53.97</ele>
        <time>2017-10-02T13:31:54Z</time>
      </trkpt>
      <trkpt lat="43.81441" lon="4.92214">
        <ele>54.45</ele>
        <time>2017-10-02T13:32:10Z</time>
      </trkpt>
      <trkpt lat="43.81418" lon="4.92301">
        <ele>54.93</ele>
        <time>2017-10-02T13:32:34Z</time>
      </trkpt>
      <trkpt lat="43.814" lon="4.92368">
        <ele>54.45</ele>
        <time>2017-10-02T13:32:54Z</time>
      </trkpt>
      <trkpt lat="43.81378" lon="4.92437">
        <ele>53.49</ele>
        <time>2017-10-02T13:33:14Z</time>
      </trkpt>
      <trkpt lat="43.81369" lon="4.92474">
        <ele>56.86</ele>
        <time>2017-10-02T13:33:27Z</time>
      </trkpt>
      <trkpt lat="43.81352" lon="4.9252">
        <ele>65.51</ele>
        <time>2017-10-02T13:33:42Z</time>
      </trkpt>
      <trkpt lat="43.81325" lon="4.92577">
        <ele>66.95</ele>
        <time>2017-10-02T13:34:00Z</time>
      </trkpt>
      <trkpt lat="43.81303" lon="4.92625">
        <ele>64.55</ele>
        <time>2017-10-02T13:34:16Z</time>
      </trkpt>
      <trkpt lat="43.81273" lon="4.92687">
        <ele>64.55</ele>
        <time>2017-10-02T13:34:36Z</time>
      </trkpt>
      <trkpt lat="43.81245" lon="4.92746">
        <ele>63.58</ele>
        <time>2017-10-02T13:34:55Z</time>
      </trkpt>
      <trkpt lat="43.81209" lon="4.9282">
        <ele>61.18</ele>
        <time>2017-10-02T13:35:19Z</time>
      </trkpt>
      <trkpt lat="43.81193" lon="4.92851">
        <ele>67.43</ele>
        <time>2017-10-02T13:35:31Z</time>
      </trkpt>
      <trkpt lat="43.81166" lon="4.92891">
        <ele>66.47</ele>
        <time>2017-10-02T13:35:46Z</time>
      </trkpt>
      <trkpt lat="43.81142" lon="4.92916">
        <ele>65.51</ele>
        <time>2017-10-02T13:35:59Z</time>
      </trkpt>
      <trkpt lat="43.81136" lon="4.92919">
        <ele>59.26</ele>
        <time>2017-10-02T13:36:14Z</time>
      </trkpt>
      <trkpt lat="43.81135" lon="4.92921">
        <ele>59.26</ele>
        <time>2017-10-02T13:36:15Z</time>
      </trkpt>
      <trkpt lat="43.81104" lon="4.92958">
        <ele>58.78</ele>
        <time>2017-10-02T13:36:31Z</time>
      </trkpt>
      <trkpt lat="43.8105" lon="4.93016">
        <ele>56.37</ele>
        <time>2017-10-02T13:36:56Z</time>
      </trkpt>
      <trkpt lat="43.81007" lon="4.93062">
        <ele>56.86</ele>
        <time>2017-10-02T13:37:17Z</time>
      </trkpt>
      <trkpt lat="43.80965" lon="4.9309">
        <ele>55.89</ele>
        <time>2017-10-02T13:37:37Z</time>
      </trkpt>
      <trkpt lat="43.80964" lon="4.93088">
        <ele>55.41</ele>
        <time>2017-10-02T13:37:38Z</time>
      </trkpt>
      <trkpt lat="43.80962" lon="4.93085">
        <ele>55.41</ele>
        <time>2017-10-02T13:37:39Z</time>
      </trkpt>
      <trkpt lat="43.80961" lon="4.93082">
        <ele>55.41</ele>
        <time>2017-10-02T13:37:40Z</time>
      </trkpt>
      <trkpt lat="43.8096" lon="4.93078">
        <ele>55.41</ele>
        <time>2017-10-02T13:37:41Z</time>
      </trkpt>
      <trkpt lat="43.8096" lon="4.93074">
        <ele>55.41</ele>
        <time>2017-10-02T13:37:42Z</time>
      </trkpt>
      <trkpt lat="43.8095" lon="4.92987">
        <ele>56.37</ele>
        <time>2017-10-02T13:38:04Z</time>
      </trkpt>
      <trkpt lat="43.80942" lon="4.92911">
        <ele>56.86</ele>
        <time>2017-10-02T13:38:23Z</time>
      </trkpt>
      <trkpt lat="43.80935" lon="4.92864">
        <ele>59.26</ele>
        <time>2017-10-02T13:38:37Z</time>
      </trkpt>
      <trkpt lat="43.80929" lon="4.92787">
        <ele>64.07</ele>
        <time>2017-10-02T13:38:56Z</time>
      </trkpt>
      <trkpt lat="43.80922" lon="4.92704">
        <ele>58.78</ele>
        <time>2017-10-02T13:39:15Z</time>
      </trkpt>
      <trkpt lat="43.80918" lon="4.92644">
        <ele>55.41</ele>
        <time>2017-10-02T13:39:31Z</time>
      </trkpt>
      <trkpt lat="43.80914" lon="4.92601">
        <ele>58.78</ele>
        <time>2017-10-02T13:39:43Z</time>
      </trkpt>
      <trkpt lat="43.80904" lon="4.92518">
        <ele>70.79</ele>
        <time>2017-10-02T13:40:03Z</time>
      </trkpt>
      <trkpt lat="43.80897" lon="4.92455">
        <ele>71.27</ele>
        <time>2017-10-02T13:40:19Z</time>
      </trkpt>
      <trkpt lat="43.80891" lon="4.92358">
        <ele>65.03</ele>
        <time>2017-10-02T13:40:43Z</time>
      </trkpt>
      <trkpt lat="43.80883" lon="4.92251">
        <ele>59.74</ele>
        <time>2017-10-02T13:41:10Z</time>
      </trkpt>
      <trkpt lat="43.80875" lon="4.92166">
        <ele>56.86</ele>
        <time>2017-10-02T13:41:33Z</time>
      </trkpt>
      <trkpt lat="43.80868" lon="4.92078">
        <ele>55.89</ele>
        <time>2017-10-02T13:41:57Z</time>
      </trkpt>
      <trkpt lat="43.80859" lon="4.9199">
        <ele>55.41</ele>
        <time>2017-10-02T13:42:20Z</time>
      </trkpt>
      <trkpt lat="43.80852" lon="4.91914">
        <ele>54.93</ele>
        <time>2017-10-02T13:42:40Z</time>
      </trkpt>
      <trkpt lat="43.80846" lon="4.91839">
        <ele>55.41</ele>
        <time>2017-10-02T13:43:00Z</time>
      </trkpt>
      <trkpt lat="43.80839" lon="4.91756">
        <ele>55.41</ele>
        <time>2017-10-02T13:43:21Z</time>
      </trkpt>
      <trkpt lat="43.80833" lon="4.91682">
        <ele>56.86</ele>
        <time>2017-10-02T13:43:41Z</time>
      </trkpt>
      <trkpt lat="43.80828" lon="4.91605">
        <ele>57.34</ele>
        <time>2017-10-02T13:44:01Z</time>
      </trkpt>
      <trkpt lat="43.80823" lon="4.91535">
        <ele>57.82</ele>
        <time>2017-10-02T13:44:19Z</time>
      </trkpt>
      <trkpt lat="43.80809" lon="4.91433">
        <ele>53.01</ele>
        <time>2017-10-02T13:44:45Z</time>
      </trkpt>
      <trkpt lat="43.80802" lon="4.91346">
        <ele>51.57</ele>
        <time>2017-10-02T13:45:09Z</time>
      </trkpt>
      <trkpt lat="43.80792" lon="4.91239">
        <ele>50.61</ele>
        <time>2017-10-02T13:45:38Z</time>
      </trkpt>
      <trkpt lat="43.80787" lon="4.91178">
        <ele>51.09</ele>
        <time>2017-10-02T13:45:55Z</time>
      </trkpt>
      <trkpt lat="43.80777" lon="4.91082">
        <ele>50.13</ele>
        <time>2017-10-02T13:46:21Z</time>
      </trkpt>
      <trkpt lat="43.80769" lon="4.90996">
        <ele>50.61</ele>
        <time>2017-10-02T13:46:44Z</time>
      </trkpt>
      <trkpt lat="43.80762" lon="4.90923">
        <ele>51.09</ele>
        <time>2017-10-02T13:47:04Z</time>
      </trkpt>
      <trkpt lat="43.80762" lon="4.90911">
        <ele>50.61</ele>
        <time>2017-10-02T13:47:12Z</time>
      </trkpt>
      <trkpt lat="43.80762" lon="4.9091">
        <ele>50.13</ele>
        <time>2017-10-02T13:47:13Z</time>
      </trkpt>
      <trkpt lat="43.80764" lon="4.90909">
        <ele>50.13</ele>
        <time>2017-10-02T13:47:14Z</time>
      </trkpt>
      <trkpt lat="43.80765" lon="4.90908">
        <ele>49.65</ele>
        <time>2017-10-02T13:47:15Z</time>
      </trkpt>
      <trkpt lat="43.80767" lon="4.90908">
        <ele>49.65</ele>
        <time>2017-10-02T13:47:16Z</time>
      </trkpt>
      <trkpt lat="43.80768" lon="4.90908">
        <ele>49.16</ele>
        <time>2017-10-02T13:47:17Z</time>
      </trkpt>
      <trkpt lat="43.8077" lon="4.90908">
        <ele>49.16</ele>
        <time>2017-10-02T13:47:18Z</time>
      </trkpt>
      <trkpt lat="43.80772" lon="4.90907">
        <ele>49.16</ele>
        <time>2017-10-02T13:47:19Z</time>
      </trkpt>
      <trkpt lat="43.80804" lon="4.90902">
        <ele>48.2</ele>
        <time>2017-10-02T13:47:33Z</time>
      </trkpt>
      <trkpt lat="43.8083" lon="4.90897">
        <ele>48.2</ele>
        <time>2017-10-02T13:47:44Z</time>
      </trkpt>
      <trkpt lat="43.80862" lon="4.90894">
        <ele>48.2</ele>
        <time>2017-10-02T13:47:57Z</time>
      </trkpt>
      <trkpt lat="43.80897" lon="4.90892">
        <ele>47.72</ele>
        <time>2017-10-02T13:48:10Z</time>
      </trkpt>
      <trkpt lat="43.80938" lon="4.90884">
        <ele>51.09</ele>
        <time>2017-10-02T13:48:25Z</time>
      </trkpt>
      <trkpt lat="43.80977" lon="4.90882">
        <ele>49.65</ele>
        <time>2017-10-02T13:48:40Z</time>
      </trkpt>
      <trkpt lat="43.81018" lon="4.90874">
        <ele>50.61</ele>
        <time>2017-10-02T13:48:54Z</time>
      </trkpt>
      <trkpt lat="43.81054" lon="4.90865">
        <ele>46.28</ele>
        <time>2017-10-02T13:49:08Z</time>
      </trkpt>
      <trkpt lat="43.81111" lon="4.90861">
        <ele>48.68</ele>
        <time>2017-10-02T13:49:25Z</time>
      </trkpt>
      <trkpt lat="43.81147" lon="4.90857">
        <ele>46.28</ele>
        <time>2017-10-02T13:49:39Z</time>
      </trkpt>
      <trkpt lat="43.81175" lon="4.90853">
        <ele>45.32</ele>
        <time>2017-10-02T13:49:51Z</time>
      </trkpt>
      <trkpt lat="43.81213" lon="4.90843">
        <ele>46.28</ele>
        <time>2017-10-02T13:50:05Z</time>
      </trkpt>
      <trkpt lat="43.81248" lon="4.90839">
        <ele>44.36</ele>
        <time>2017-10-02T13:50:19Z</time>
      </trkpt>
      <trkpt lat="43.81271" lon="4.90835">
        <ele>45.32</ele>
        <time>2017-10-02T13:50:29Z</time>
      </trkpt>
      <trkpt lat="43.81274" lon="4.90835">
        <ele>45.8</ele>
        <time>2017-10-02T13:50:30Z</time>
      </trkpt>
      <trkpt lat="43.81276" lon="4.90833">
        <ele>45.8</ele>
        <time>2017-10-02T13:50:31Z</time>
      </trkpt>
      <trkpt lat="43.81278" lon="4.90832">
        <ele>46.28</ele>
        <time>2017-10-02T13:50:32Z</time>
      </trkpt>
      <trkpt lat="43.81281" lon="4.9083">
        <ele>46.76</ele>
        <time>2017-10-02T13:50:33Z</time>
      </trkpt>
      <trkpt lat="43.81289" lon="4.90787">
        <ele>47.72</ele>
        <time>2017-10-02T13:50:47Z</time>
      </trkpt>
      <trkpt lat="43.81292" lon="4.90733">
        <ele>51.57</ele>
        <time>2017-10-02T13:51:03Z</time>
      </trkpt>
      <trkpt lat="43.81296" lon="4.90668">
        <ele>53.49</ele>
        <time>2017-10-02T13:51:21Z</time>
      </trkpt>
      <trkpt lat="43.81297" lon="4.90616">
        <ele>55.41</ele>
        <time>2017-10-02T13:51:37Z</time>
      </trkpt>
      <trkpt lat="43.81298" lon="4.9057">
        <ele>57.82</ele>
        <time>2017-10-02T13:51:53Z</time>
      </trkpt>
      <trkpt lat="43.81298" lon="4.90533">
        <ele>59.26</ele>
        <time>2017-10-02T13:52:06Z</time>
      </trkpt>
      <trkpt lat="43.81299" lon="4.90481">
        <ele>57.34</ele>
        <time>2017-10-02T13:52:21Z</time>
      </trkpt>
      <trkpt lat="43.81298" lon="4.90458">
        <ele>56.86</ele>
        <time>2017-10-02T13:52:32Z</time>
      </trkpt>
      <trkpt lat="43.81298" lon="4.9044">
        <ele>56.37</ele>
        <time>2017-10-02T13:52:41Z</time>
      </trkpt>
      <trkpt lat="43.81304" lon="4.90409">
        <ele>56.37</ele>
        <time>2017-10-02T13:52:58Z</time>
      </trkpt>
      <trkpt lat="43.81307" lon="4.90375">
        <ele>56.86</ele>
        <time>2017-10-02T13:53:17Z</time>
      </trkpt>
      <trkpt lat="43.81299" lon="4.90351">
        <ele>54.93</ele>
        <time>2017-10-02T13:53:33Z</time>
      </trkpt>
      <trkpt lat="43.81285" lon="4.90348">
        <ele>53.49</ele>
        <time>2017-10-02T13:53:44Z</time>
      </trkpt>
      <trkpt lat="43.81279" lon="4.90335">
        <ele>53.97</ele>
        <time>2017-10-02T13:53:53Z</time>
      </trkpt>
      <trkpt lat="43.81278" lon="4.90308">
        <ele>53.97</ele>
        <time>2017-10-02T13:54:12Z</time>
      </trkpt>
      <trkpt lat="43.81279" lon="4.90279">
        <ele>54.93</ele>
        <time>2017-10-02T13:54:29Z</time>
      </trkpt>
      <trkpt lat="43.81279" lon="4.90249">
        <ele>55.41</ele>
        <time>2017-10-02T13:54:45Z</time>
      </trkpt>
      <trkpt lat="43.81279" lon="4.90213">
        <ele>54.93</ele>
        <time>2017-10-02T13:55:05Z</time>
      </trkpt>
      <trkpt lat="43.81279" lon="4.90176">
        <ele>53.01</ele>
        <time>2017-10-02T13:55:24Z</time>
      </trkpt>
      <trkpt lat="43.81279" lon="4.90133">
        <ele>52.05</ele>
        <time>2017-10-02T13:55:47Z</time>
      </trkpt>
      <trkpt lat="43.8128" lon="4.90099">
        <ele>51.09</ele>
        <time>2017-10-02T13:56:05Z</time>
      </trkpt>
      <trkpt lat="43.81281" lon="4.9006">
        <ele>50.61</ele>
        <time>2017-10-02T13:56:26Z</time>
      </trkpt>
      <trkpt lat="43.81283" lon="4.90022">
        <ele>50.13</ele>
        <time>2017-10-02T13:56:46Z</time>
      </trkpt>
      <trkpt lat="43.81283" lon="4.89989">
        <ele>50.13</ele>
        <time>2017-10-02T13:57:04Z</time>
      </trkpt>
      <trkpt lat="43.81292" lon="4.89974">
        <ele>50.13</ele>
        <time>2017-10-02T13:57:18Z</time>
      </trkpt>
      <trkpt lat="43.8132" lon="4.89972">
        <ele>51.09</ele>
        <time>2017-10-02T13:57:30Z</time>
      </trkpt>
      <trkpt lat="43.81367" lon="4.89967">
        <ele>54.93</ele>
        <time>2017-10-02T13:57:45Z</time>
      </trkpt>
      <trkpt lat="43.81412" lon="4.89962">
        <ele>55.41</ele>
        <time>2017-10-02T13:57:59Z</time>
      </trkpt>
      <trkpt lat="43.81475" lon="4.89964">
        <ele>53.97</ele>
        <time>2017-10-02T13:58:18Z</time>
      </trkpt>
      <trkpt lat="43.81528" lon="4.8996">
        <ele>53.97</ele>
        <time>2017-10-02T13:58:36Z</time>
      </trkpt>
      <trkpt lat="43.81562" lon="4.8996">
        <ele>59.26</ele>
        <time>2017-10-02T13:58:49Z</time>
      </trkpt>
      <trkpt lat="43.81603" lon="4.89958">
        <ele>65.99</ele>
        <time>2017-10-02T13:59:04Z</time>
      </trkpt>
      <trkpt lat="43.81659" lon="4.89952">
        <ele>65.51</ele>
        <time>2017-10-02T13:59:23Z</time>
      </trkpt>
      <trkpt lat="43.81701" lon="4.89945">
        <ele>67.43</ele>
        <time>2017-10-02T13:59:38Z</time>
      </trkpt>
      <trkpt lat="43.81759" lon="4.89942">
        <ele>65.03</ele>
        <time>2017-10-02T13:59:57Z</time>
      </trkpt>
      <trkpt lat="43.8182" lon="4.8994">
        <ele>63.1</ele>
        <time>2017-10-02T14:00:17Z</time>
      </trkpt>
      <trkpt lat="43.81857" lon="4.89939">
        <ele>61.18</ele>
        <time>2017-10-02T14:00:31Z</time>
      </trkpt>
      <trkpt lat="43.81885" lon="4.89938">
        <ele>59.26</ele>
        <time>2017-10-02T14:00:47Z</time>
      </trkpt>
      <trkpt lat="43.81898" lon="4.89938">
        <ele>58.3</ele>
        <time>2017-10-02T14:00:58Z</time>
      </trkpt>
      <trkpt lat="43.81924" lon="4.89956">
        <ele>55.89</ele>
        <time>2017-10-02T14:01:10Z</time>
      </trkpt>
      <trkpt lat="43.81963" lon="4.89962">
        <ele>58.78</ele>
        <time>2017-10-02T14:01:25Z</time>
      </trkpt>
      <trkpt lat="43.82015" lon="4.89964">
        <ele>63.58</ele>
        <time>2017-10-02T14:01:45Z</time>
      </trkpt>
      <trkpt lat="43.82053" lon="4.89966">
        <ele>66.47</ele>
        <time>2017-10-02T14:01:58Z</time>
      </trkpt>
      <trkpt lat="43.82099" lon="4.89973">
        <ele>64.55</ele>
        <time>2017-10-02T14:02:14Z</time>
      </trkpt>
      <trkpt lat="43.82145" lon="4.89978">
        <ele>65.51</ele>
        <time>2017-10-02T14:02:30Z</time>
      </trkpt>
      <trkpt lat="43.82205" lon="4.89984">
        <ele>63.1</ele>
        <time>2017-10-02T14:02:51Z</time>
      </trkpt>
      <trkpt lat="43.82263" lon="4.89994">
        <ele>58.78</ele>
        <time>2017-10-02T14:03:12Z</time>
      </trkpt>
      <trkpt lat="43.82302" lon="4.90004">
        <ele>55.41</ele>
        <time>2017-10-02T14:03:29Z</time>
      </trkpt>
      <trkpt lat="43.82317" lon="4.90006">
        <ele>60.7</ele>
        <time>2017-10-02T14:03:41Z</time>
      </trkpt>
      <trkpt lat="43.8232" lon="4.90004">
        <ele>61.66</ele>
        <time>2017-10-02T14:03:43Z</time>
      </trkpt>
      <trkpt lat="43.82327" lon="4.89979">
        <ele>60.22</ele>
        <time>2017-10-02T14:03:55Z</time>
      </trkpt>
      <trkpt lat="43.82329" lon="4.89977">
        <ele>59.74</ele>
        <time>2017-10-02T14:03:56Z</time>
      </trkpt>
      <trkpt lat="43.82331" lon="4.89976">
        <ele>59.74</ele>
        <time>2017-10-02T14:03:57Z</time>
      </trkpt>
      <trkpt lat="43.82333" lon="4.89975">
        <ele>59.26</ele>
        <time>2017-10-02T14:03:58Z</time>
      </trkpt>
      <trkpt lat="43.82335" lon="4.89974">
        <ele>59.74</ele>
        <time>2017-10-02T14:03:59Z</time>
      </trkpt>
      <trkpt lat="43.82338" lon="4.89973">
        <ele>59.74</ele>
        <time>2017-10-02T14:04:00Z</time>
      </trkpt>
      <trkpt lat="43.82387" lon="4.89973">
        <ele>67.43</ele>
        <time>2017-10-02T14:04:17Z</time>
      </trkpt>
      <trkpt lat="43.82446" lon="4.89976">
        <ele>70.79</ele>
        <time>2017-10-02T14:04:37Z</time>
      </trkpt>
      <trkpt lat="43.82505" lon="4.89978">
        <ele>65.03</ele>
        <time>2017-10-02T14:04:56Z</time>
      </trkpt>
      <trkpt lat="43.82511" lon="4.89979">
        <ele>63.58</ele>
        <time>2017-10-02T14:04:58Z</time>
      </trkpt>
      <trkpt lat="43.82513" lon="4.89977">
        <ele>63.1</ele>
        <time>2017-10-02T14:04:59Z</time>
      </trkpt>
      <trkpt lat="43.82515" lon="4.89977">
        <ele>63.1</ele>
        <time>2017-10-02T14:05:00Z</time>
      </trkpt>
      <trkpt lat="43.82529" lon="4.8998">
        <ele>61.18</ele>
        <time>2017-10-02T14:05:11Z</time>
      </trkpt>
      <trkpt lat="43.82592" lon="4.89984">
        <ele>66.95</ele>
        <time>2017-10-02T14:05:33Z</time>
      </trkpt>
      <trkpt lat="43.82651" lon="4.89989">
        <ele>66.95</ele>
        <time>2017-10-02T14:05:54Z</time>
      </trkpt>
      <trkpt lat="43.82703" lon="4.89995">
        <ele>62.14</ele>
        <time>2017-10-02T14:06:13Z</time>
      </trkpt>
      <trkpt lat="43.82764" lon="4.90001">
        <ele>60.22</ele>
        <time>2017-10-02T14:06:35Z</time>
      </trkpt>
      <trkpt lat="43.82814" lon="4.90005">
        <ele>61.66</ele>
        <time>2017-10-02T14:06:53Z</time>
      </trkpt>
      <trkpt lat="43.82872" lon="4.90014">
        <ele>60.7</ele>
        <time>2017-10-02T14:07:15Z</time>
      </trkpt>
      <trkpt lat="43.8292" lon="4.90014">
        <ele>65.03</ele>
        <time>2017-10-02T14:07:31Z</time>
      </trkpt>
      <trkpt lat="43.82985" lon="4.9002">
        <ele>62.62</ele>
        <time>2017-10-02T14:07:53Z</time>
      </trkpt>
      <trkpt lat="43.83046" lon="4.90024">
        <ele>56.86</ele>
        <time>2017-10-02T14:08:13Z</time>
      </trkpt>
      <trkpt lat="43.83093" lon="4.90032">
        <ele>63.1</ele>
        <time>2017-10-02T14:08:29Z</time>
      </trkpt>
      <trkpt lat="43.83123" lon="4.90033">
        <ele>73.2</ele>
        <time>2017-10-02T14:08:40Z</time>
      </trkpt>
      <trkpt lat="43.83158" lon="4.90037">
        <ele>74.64</ele>
        <time>2017-10-02T14:08:58Z</time>
      </trkpt>
      <trkpt lat="43.83167" lon="4.90053">
        <ele>71.27</ele>
        <time>2017-10-02T14:09:10Z</time>
      </trkpt>
      <trkpt lat="43.83178" lon="4.90157">
        <ele>63.1</ele>
        <time>2017-10-02T14:09:33Z</time>
      </trkpt>
      <trkpt lat="43.83185" lon="4.90233">
        <ele>58.3</ele>
        <time>2017-10-02T14:09:51Z</time>
      </trkpt>
      <trkpt lat="43.83192" lon="4.90324">
        <ele>56.37</ele>
        <time>2017-10-02T14:10:12Z</time>
      </trkpt>
      <trkpt lat="43.83192" lon="4.90352">
        <ele>55.89</ele>
        <time>2017-10-02T14:10:20Z</time>
      </trkpt>
      <trkpt lat="43.8319" lon="4.90354">
        <ele>55.89</ele>
        <time>2017-10-02T14:10:21Z</time>
      </trkpt>
      <trkpt lat="43.8314" lon="4.90382">
        <ele>51.57</ele>
        <time>2017-10-02T14:10:40Z</time>
      </trkpt>
      <trkpt lat="43.83116" lon="4.90393">
        <ele>51.57</ele>
        <time>2017-10-02T14:10:55Z</time>
      </trkpt>
      <trkpt lat="43.83113" lon="4.90397">
        <ele>51.57</ele>
        <time>2017-10-02T14:10:57Z</time>
      </trkpt>
      <trkpt lat="43.83112" lon="4.904">
        <ele>52.53</ele>
        <time>2017-10-02T14:10:58Z</time>
      </trkpt>
      <trkpt lat="43.83111" lon="4.90404">
        <ele>53.49</ele>
        <time>2017-10-02T14:10:59Z</time>
      </trkpt>
      <trkpt lat="43.8311" lon="4.90479">
        <ele>56.86</ele>
        <time>2017-10-02T14:11:19Z</time>
      </trkpt>
      <trkpt lat="43.83111" lon="4.90572">
        <ele>53.97</ele>
        <time>2017-10-02T14:11:42Z</time>
      </trkpt>
      <trkpt lat="43.83111" lon="4.90648">
        <ele>55.41</ele>
        <time>2017-10-02T14:12:03Z</time>
      </trkpt>
      <trkpt lat="43.83121" lon="4.90692">
        <ele>56.86</ele>
        <time>2017-10-02T14:12:16Z</time>
      </trkpt>
      <trkpt lat="43.83151" lon="4.90758">
        <ele>57.82</ele>
        <time>2017-10-02T14:12:35Z</time>
      </trkpt>
      <trkpt lat="43.8316" lon="4.90809">
        <ele>57.34</ele>
        <time>2017-10-02T14:12:49Z</time>
      </trkpt>
      <trkpt lat="43.8316" lon="4.90894">
        <ele>54.45</ele>
        <time>2017-10-02T14:13:07Z</time>
      </trkpt>
      <trkpt lat="43.83154" lon="4.91005">
        <ele>52.05</ele>
        <time>2017-10-02T14:13:31Z</time>
      </trkpt>
      <trkpt lat="43.8315" lon="4.91086">
        <ele>52.05</ele>
        <time>2017-10-02T14:13:50Z</time>
      </trkpt>
      <trkpt lat="43.83133" lon="4.91157">
        <ele>52.05</ele>
        <time>2017-10-02T14:14:07Z</time>
      </trkpt>
      <trkpt lat="43.83098" lon="4.91252">
        <ele>51.09</ele>
        <time>2017-10-02T14:14:32Z</time>
      </trkpt>
      <trkpt lat="43.83067" lon="4.91356">
        <ele>51.09</ele>
        <time>2017-10-02T14:14:56Z</time>
      </trkpt>
      <trkpt lat="43.83048" lon="4.91445">
        <ele>52.05</ele>
        <time>2017-10-02T14:15:16Z</time>
      </trkpt>
      <trkpt lat="43.83051" lon="4.91529">
        <ele>53.01</ele>
        <time>2017-10-02T14:15:36Z</time>
      </trkpt>
      <trkpt lat="43.83052" lon="4.91599">
        <ele>54.45</ele>
        <time>2017-10-02T14:15:53Z</time>
      </trkpt>
      <trkpt lat="43.83055" lon="4.91656">
        <ele>55.89</ele>
        <time>2017-10-02T14:16:07Z</time>
      </trkpt>
      <trkpt lat="43.8307" lon="4.91736">
        <ele>54.45</ele>
        <time>2017-10-02T14:16:27Z</time>
      </trkpt>
      <trkpt lat="43.83079" lon="4.91782">
        <ele>53.49</ele>
        <time>2017-10-02T14:16:42Z</time>
      </trkpt>
      <trkpt lat="43.83098" lon="4.91853">
        <ele>53.97</ele>
        <time>2017-10-02T14:16:58Z</time>
      </trkpt>
      <trkpt lat="43.83109" lon="4.91896">
        <ele>54.93</ele>
        <time>2017-10-02T14:17:10Z</time>
      </trkpt>
      <trkpt lat="43.8312" lon="4.91943">
        <ele>56.37</ele>
        <time>2017-10-02T14:17:23Z</time>
      </trkpt>
      <trkpt lat="43.8314" lon="4.92013">
        <ele>56.86</ele>
        <time>2017-10-02T14:17:39Z</time>
      </trkpt>
      <trkpt lat="43.83175" lon="4.92103">
        <ele>54.93</ele>
        <time>2017-10-02T14:17:59Z</time>
      </trkpt>
      <trkpt lat="43.8322" lon="4.92167">
        <ele>57.82</ele>
        <time>2017-10-02T14:18:17Z</time>
      </trkpt>
      <trkpt lat="43.83255" lon="4.92227">
        <ele>59.74</ele>
        <time>2017-10-02T14:18:34Z</time>
      </trkpt>
      <trkpt lat="43.83291" lon="4.92291">
        <ele>59.26</ele>
        <time>2017-10-02T14:18:51Z</time>
      </trkpt>
      <trkpt lat="43.83306" lon="4.92336">
        <ele>59.26</ele>
        <time>2017-10-02T14:19:03Z</time>
      </trkpt>
      <trkpt lat="43.83316" lon="4.92375">
        <ele>59.74</ele>
        <time>2017-10-02T14:19:13Z</time>
      </trkpt>
      <trkpt lat="43.8333" lon="4.92427">
        <ele>60.7</ele>
        <time>2017-10-02T14:19:28Z</time>
      </trkpt>
      <trkpt lat="43.83334" lon="4.92441">
        <ele>61.18</ele>
        <time>2017-10-02T14:19:57Z</time>
      </trkpt>
      <trkpt lat="43.83339" lon="4.92469">
        <ele>61.66</ele>
        <time>2017-10-02T14:20:11Z</time>
      </trkpt>
      <trkpt lat="43.83345" lon="4.92508">
        <ele>62.14</ele>
        <time>2017-10-02T14:20:25Z</time>
      </trkpt>
      <trkpt lat="43.83347" lon="4.9255">
        <ele>62.62</ele>
        <time>2017-10-02T14:20:37Z</time>
      </trkpt>
      <trkpt lat="43.83354" lon="4.92625">
        <ele>63.58</ele>
        <time>2017-10-02T14:20:54Z</time>
      </trkpt>
      <trkpt lat="43.8337" lon="4.92696">
        <ele>62.62</ele>
        <time>2017-10-02T14:21:11Z</time>
      </trkpt>
      <trkpt lat="43.83391" lon="4.92756">
        <ele>62.14</ele>
        <time>2017-10-02T14:21:29Z</time>
      </trkpt>
      <trkpt lat="43.83409" lon="4.92806">
        <ele>61.66</ele>
        <time>2017-10-02T14:21:47Z</time>
      </trkpt>
      <trkpt lat="43.83422" lon="4.92844">
        <ele>61.18</ele>
        <time>2017-10-02T14:22:06Z</time>
      </trkpt>
      <trkpt lat="43.83428" lon="4.92858">
        <ele>60.7</ele>
        <time>2017-10-02T14:22:16Z</time>
      </trkpt>
      <trkpt lat="43.83427" lon="4.92861">
        <ele>60.22</ele>
        <time>2017-10-02T14:22:17Z</time>
      </trkpt>
      <trkpt lat="43.83426" lon="4.92863">
        <ele>60.22</ele>
        <time>2017-10-02T14:22:18Z</time>
      </trkpt>
      <trkpt lat="43.83401" lon="4.92884">
        <ele>59.26</ele>
        <time>2017-10-02T14:22:32Z</time>
      </trkpt>
      <trkpt lat="43.83396" lon="4.92893">
        <ele>59.26</ele>
        <time>2017-10-02T14:22:36Z</time>
      </trkpt>
      <trkpt lat="43.83395" lon="4.92896">
        <ele>59.74</ele>
        <time>2017-10-02T14:22:37Z</time>
      </trkpt>
      <trkpt lat="43.83396" lon="4.92899">
        <ele>59.74</ele>
        <time>2017-10-02T14:22:38Z</time>
      </trkpt>
      <trkpt lat="43.83396" lon="4.92903">
        <ele>60.22</ele>
        <time>2017-10-02T14:22:39Z</time>
      </trkpt>
      <trkpt lat="43.83397" lon="4.92907">
        <ele>60.22</ele>
        <time>2017-10-02T14:22:40Z</time>
      </trkpt>
      <trkpt lat="43.83412" lon="4.92984">
        <ele>63.1</ele>
        <time>2017-10-02T14:23:01Z</time>
      </trkpt>
      <trkpt lat="43.83424" lon="4.93028">
        <ele>62.14</ele>
        <time>2017-10-02T14:23:15Z</time>
      </trkpt>
      <trkpt lat="43.83434" lon="4.93087">
        <ele>61.66</ele>
        <time>2017-10-02T14:23:33Z</time>
      </trkpt>
      <trkpt lat="43.83443" lon="4.93137">
        <ele>61.18</ele>
        <time>2017-10-02T14:23:48Z</time>
      </trkpt>
      <trkpt lat="43.83466" lon="4.93205">
        <ele>59.74</ele>
        <time>2017-10-02T14:24:09Z</time>
      </trkpt>
      <trkpt lat="43.83492" lon="4.93261">
        <ele>59.74</ele>
        <time>2017-10-02T14:24:31Z</time>
      </trkpt>
      <trkpt lat="43.83517" lon="4.93312">
        <ele>61.18</ele>
        <time>2017-10-02T14:24:49Z</time>
      </trkpt>
      <trkpt lat="43.83514" lon="4.93383">
        <ele>61.18</ele>
        <time>2017-10-02T14:25:09Z</time>
      </trkpt>
      <trkpt lat="43.83528" lon="4.93406">
        <ele>61.66</ele>
        <time>2017-10-02T14:25:21Z</time>
      </trkpt>
      <trkpt lat="43.83583" lon="4.9341">
        <ele>62.14</ele>
        <time>2017-10-02T14:25:43Z</time>
      </trkpt>
      <trkpt lat="43.83625" lon="4.93411">
        <ele>62.62</ele>
        <time>2017-10-02T14:26:03Z</time>
      </trkpt>
      <trkpt lat="43.83631" lon="4.93414">
        <ele>61.18</ele>
        <time>2017-10-02T14:26:11Z</time>
      </trkpt>
      <trkpt lat="43.83632" lon="4.93416">
        <ele>61.18</ele>
        <time>2017-10-02T14:26:12Z</time>
      </trkpt>
      <trkpt lat="43.83633" lon="4.93419">
        <ele>61.18</ele>
        <time>2017-10-02T14:26:13Z</time>
      </trkpt>
      <trkpt lat="43.83633" lon="4.93421">
        <ele>61.18</ele>
        <time>2017-10-02T14:26:14Z</time>
      </trkpt>
      <trkpt lat="43.83634" lon="4.93425">
        <ele>61.18</ele>
        <time>2017-10-02T14:26:15Z</time>
      </trkpt>
      <trkpt lat="43.83634" lon="4.93428">
        <ele>61.18</ele>
        <time>2017-10-02T14:26:16Z</time>
      </trkpt>
      <trkpt lat="43.83636" lon="4.93483">
        <ele>62.62</ele>
        <time>2017-10-02T14:26:32Z</time>
      </trkpt>
      <trkpt lat="43.83629" lon="4.9356">
        <ele>61.66</ele>
        <time>2017-10-02T14:26:53Z</time>
      </trkpt>
      <trkpt lat="43.83626" lon="4.93647">
        <ele>61.66</ele>
        <time>2017-10-02T14:27:16Z</time>
      </trkpt>
      <trkpt lat="43.83631" lon="4.93717">
        <ele>61.66</ele>
        <time>2017-10-02T14:27:35Z</time>
      </trkpt>
      <trkpt lat="43.83633" lon="4.93758">
        <ele>61.18</ele>
        <time>2017-10-02T14:27:50Z</time>
      </trkpt>
      <trkpt lat="43.83634" lon="4.93759">
        <ele>60.7</ele>
        <time>2017-10-02T14:27:51Z</time>
      </trkpt>
      <trkpt lat="43.83636" lon="4.9376">
        <ele>60.22</ele>
        <time>2017-10-02T14:27:52Z</time>
      </trkpt>
      <trkpt lat="43.83667" lon="4.93758">
        <ele>59.74</ele>
        <time>2017-10-02T14:28:13Z</time>
      </trkpt>
      <trkpt lat="43.83703" lon="4.9375">
        <ele>57.82</ele>
        <time>2017-10-02T14:28:37Z</time>
      </trkpt>
      <trkpt lat="43.83707" lon="4.93749">
        <ele>56.37</ele>
        <time>2017-10-02T14:28:50Z</time>
      </trkpt>
      <trkpt lat="43.83706" lon="4.9375">
        <ele>55.89</ele>
        <time>2017-10-02T14:29:08Z</time>
      </trkpt>
      <trkpt lat="43.83705" lon="4.93752">
        <ele>55.89</ele>
        <time>2017-10-02T14:29:36Z</time>
      </trkpt>
      <trkpt lat="43.83705" lon="4.93752">
        <ele>55.41</ele>
        <time>2017-10-02T14:30:02Z</time>
      </trkpt>
      <trkpt lat="43.83709" lon="4.9375">
        <ele>55.41</ele>
        <time>2017-10-02T14:30:15Z</time>
      </trkpt>
      <trkpt lat="43.83741" lon="4.93735">
        <ele>55.89</ele>
        <time>2017-10-02T14:30:38Z</time>
      </trkpt>
      <trkpt lat="43.83755" lon="4.93715">
        <ele>55.41</ele>
        <time>2017-10-02T14:30:57Z</time>
      </trkpt>
      <trkpt lat="43.83749" lon="4.93715">
        <ele>53.49</ele>
        <time>2017-10-02T14:31:12Z</time>
      </trkpt>
      <trkpt lat="43.8375" lon="4.93715">
        <ele>52.53</ele>
        <time>2017-10-02T14:31:43Z</time>
      </trkpt>
      <trkpt lat="43.83752" lon="4.93714">
        <ele>52.05</ele>
        <time>2017-10-02T14:32:06Z</time>
      </trkpt>
      <trkpt lat="43.83752" lon="4.93717">
        <ele>52.53</ele>
        <time>2017-10-02T14:32:43Z</time>
      </trkpt>
      <trkpt lat="43.83753" lon="4.93717">
        <ele>52.05</ele>
        <time>2017-10-02T14:33:14Z</time>
      </trkpt>
      <trkpt lat="43.83753" lon="4.93712">
        <ele>52.05</ele>
        <time>2017-10-02T14:33:47Z</time>
      </trkpt>
      <trkpt lat="43.83752" lon="4.93717">
        <ele>55.41</ele>
        <time>2017-10-02T14:34:29Z</time>
      </trkpt>
      <trkpt lat="43.83754" lon="4.93712">
        <ele>55.41</ele>
        <time>2017-10-02T14:35:11Z</time>
      </trkpt>
      <trkpt lat="43.83754" lon="4.93714">
        <ele>54.45</ele>
        <time>2017-10-02T14:35:39Z</time>
      </trkpt>
      <trkpt lat="43.83754" lon="4.93713">
        <ele>54.45</ele>
        <time>2017-10-02T14:36:09Z</time>
      </trkpt>
      <trkpt lat="43.83752" lon="4.93713">
        <ele>52.05</ele>
        <time>2017-10-02T14:36:46Z</time>
      </trkpt>
      <trkpt lat="43.83751" lon="4.93714">
        <ele>53.49</ele>
        <time>2017-10-02T14:37:23Z</time>
      </trkpt>
      <trkpt lat="43.83755" lon="4.93709">
        <ele>52.53</ele>
        <time>2017-10-02T14:37:49Z</time>
      </trkpt>
      <trkpt lat="43.83758" lon="4.93706">
        <ele>53.97</ele>
        <time>2017-10-02T14:38:08Z</time>
      </trkpt>
      <trkpt lat="43.83757" lon="4.93705">
        <ele>53.97</ele>
        <time>2017-10-02T14:38:24Z</time>
      </trkpt>
      <trkpt lat="43.83749" lon="4.93708">
        <ele>53.97</ele>
        <time>2017-10-02T14:38:51Z</time>
      </trkpt>
      <trkpt lat="43.83745" lon="4.93708">
        <ele>55.89</ele>
        <time>2017-10-02T14:39:12Z</time>
      </trkpt>
      <trkpt lat="43.83758" lon="4.93706">
        <ele>53.97</ele>
        <time>2017-10-02T14:39:50Z</time>
      </trkpt>
      <trkpt lat="43.83754" lon="4.93714">
        <ele>55.41</ele>
        <time>2017-10-02T14:40:15Z</time>
      </trkpt>
      <trkpt lat="43.83754" lon="4.93715">
        <ele>55.89</ele>
        <time>2017-10-02T14:40:45Z</time>
      </trkpt>
      <trkpt lat="43.83754" lon="4.93716">
        <ele>57.82</ele>
        <time>2017-10-02T14:41:12Z</time>
      </trkpt>
      <trkpt lat="43.83756" lon="4.93716">
        <ele>56.37</ele>
        <time>2017-10-02T14:41:43Z</time>
      </trkpt>
      <trkpt lat="43.83756" lon="4.93716">
        <ele>55.89</ele>
        <time>2017-10-02T14:42:10Z</time>
      </trkpt>
      <trkpt lat="43.83755" lon="4.93712">
        <ele>53.97</ele>
        <time>2017-10-02T14:42:50Z</time>
      </trkpt>
      <trkpt lat="43.83756" lon="4.93713">
        <ele>53.97</ele>
        <time>2017-10-02T14:43:21Z</time>
      </trkpt>
      <trkpt lat="43.83756" lon="4.93713">
        <ele>54.45</ele>
        <time>2017-10-02T14:43:24Z</time>
      </trkpt>
      <trkpt lat="43.8371" lon="4.93707">
        <ele>53.97</ele>
        <time>2017-10-02T15:44:35Z</time>
      </trkpt>
      <trkpt lat="43.83725" lon="4.93719">
        <ele>54.45</ele>
        <time>2017-10-02T15:45:02Z</time>
      </trkpt>
      <trkpt lat="43.83739" lon="4.93721">
        <ele>53.49</ele>
        <time>2017-10-02T15:46:41Z</time>
      </trkpt>
      <trkpt lat="43.83739" lon="4.93719">
        <ele>53.97</ele>
        <time>2017-10-02T15:47:03Z</time>
      </trkpt>
      <trkpt lat="43.83735" lon="4.93722">
        <ele>54.45</ele>
        <time>2017-10-02T15:47:26Z</time>
      </trkpt>
    </trkseg>
  </trk>
</gpx>